sensor_id;sensor_type;location;lat;lon;timestamp;temperature;humidity
6843;DHT22;3460;52.028;8.916;2023-05-16T00:01:56;11.50;99.90
6843;DHT22;3460;52.028;8.916;2023-05-16T00:04:23;11.50;99.90
6843;DHT22;3460;52.028;8.916;2023-05-16T00:06:50;11.50;99.90
6843;DHT22;3460;52.028;8.916;2023-05-16T00:09:18;11.50;99.90
6843;DHT22;3460;52.028;8.916;2023-05-16T00:11:46;11.50;99.90
6843;DHT22;3460;52.028;8.916;2023-05-16T00:14:14;11.40;99.90
6843;DHT22;3460;52.028;8.916;2023-05-16T00:16:41;11.40;99.90
6843;DHT22;3460;52.028;8.916;2023-05-16T00:19:08;11.40;99.90
6843;DHT22;3460;52.028;8.916;2023-05-16T00:21:35;11.30;99.90
6843;DHT22;3460;52.028;8.916;2023-05-16T00:24:03;11.30;99.90
6843;DHT22;3460;52.028;8.916;2023-05-16T00:26:31;11.20;99.90
6843;DHT22;3460;52.028;8.916;2023-05-16T00:28:58;11.30;99.90
6843;DHT22;3460;52.028;8.916;2023-05-16T00:31:25;11.30;99.90
6843;DHT22;3460;52.028;8.916;2023-05-16T00:33:52;11.20;99.90
6843;DHT22;3460;52.028;8.916;2023-05-16T00:36:19;11.20;99.90
6843;DHT22;3460;52.028;8.916;2023-05-16T00:38:46;11.10;99.90
6843;DHT22;3460;52.028;8.916;2023-05-16T00:41:13;11.10;99.90
6843;DHT22;3460;52.028;8.916;2023-05-16T00:43:41;11.20;99.90
6843;DHT22;3460;52.028;8.916;2023-05-16T00:46:08;11.10;99.90
6843;DHT22;3460;52.028;8.916;2023-05-16T00:48:35;11.10;99.90
6843;DHT22;3460;52.028;8.916;2023-05-16T00:51:02;11.10;99.90
6843;DHT22;3460;52.028;8.916;2023-05-16T00:53:33;11.20;99.90
6843;DHT22;3460;52.028;8.916;2023-05-16T00:56:01;11.20;99.90
6843;DHT22;3460;52.028;8.916;2023-05-16T00:58:29;11.10;99.90
6843;DHT22;3460;52.028;8.916;2023-05-16T01:00:58;11.10;99.90
6843;DHT22;3460;52.028;8.916;2023-05-16T01:03:26;11.10;99.90
6843;DHT22;3460;52.028;8.916;2023-05-16T01:05:53;11.10;99.90
6843;DHT22;3460;52.028;8.916;2023-05-16T01:08:20;11.10;99.90
6843;DHT22;3460;52.028;8.916;2023-05-16T01:10:52;11.00;99.90
6843;DHT22;3460;52.028;8.916;2023-05-16T01:13:27;11.10;99.90
6843;DHT22;3460;52.028;8.916;2023-05-16T01:16:04;11.00;99.90
6843;DHT22;3460;52.028;8.916;2023-05-16T01:18:40;11.10;99.90
6843;DHT22;3460;52.028;8.916;2023-05-16T01:21:11;11.10;99.90
6843;DHT22;3460;52.028;8.916;2023-05-16T01:23:50;11.10;99.90
6843;DHT22;3460;52.028;8.916;2023-05-16T01:26:21;11.10;99.90
6843;DHT22;3460;52.028;8.916;2023-05-16T01:28:49;11.10;99.90
6843;DHT22;3460;52.028;8.916;2023-05-16T01:31:16;11.00;99.90
6843;DHT22;3460;52.028;8.916;2023-05-16T01:33:43;10.90;99.90
6843;DHT22;3460;52.028;8.916;2023-05-16T01:36:16;10.90;99.90
6843;DHT22;3460;52.028;8.916;2023-05-16T01:38:49;10.80;99.90
6843;DHT22;3460;52.028;8.916;2023-05-16T01:41:22;10.80;99.90
6843;DHT22;3460;52.028;8.916;2023-05-16T01:43:54;10.80;99.90
6843;DHT22;3460;52.028;8.916;2023-05-16T01:46:25;10.90;99.90
6843;DHT22;3460;52.028;8.916;2023-05-16T01:49:00;10.90;99.90
6843;DHT22;3460;52.028;8.916;2023-05-16T01:51:31;10.90;99.90
6843;DHT22;3460;52.028;8.916;2023-05-16T01:54:01;10.90;99.90
6843;DHT22;3460;52.028;8.916;2023-05-16T01:56:31;10.90;99.90
6843;DHT22;3460;52.028;8.916;2023-05-16T01:59:00;10.90;99.90
6843;DHT22;3460;52.028;8.916;2023-05-16T02:01:29;10.90;99.90
6843;DHT22;3460;52.028;8.916;2023-05-16T02:03:56;10.90;99.90
6843;DHT22;3460;52.028;8.916;2023-05-16T02:06:23;10.90;99.90
6843;DHT22;3460;52.028;8.916;2023-05-16T02:08:50;11.00;99.90
6843;DHT22;3460;52.028;8.916;2023-05-16T02:11:17;10.90;99.90
6843;DHT22;3460;52.028;8.916;2023-05-16T02:13:45;10.90;99.90
6843;DHT22;3460;52.028;8.916;2023-05-16T02:16:12;10.90;99.90
6843;DHT22;3460;52.028;8.916;2023-05-16T02:18:39;10.80;99.90
6843;DHT22;3460;52.028;8.916;2023-05-16T02:21:05;10.90;99.90
6843;DHT22;3460;52.028;8.916;2023-05-16T02:23:33;10.80;99.90
6843;DHT22;3460;52.028;8.916;2023-05-16T02:25:59;10.80;99.90
6843;DHT22;3460;52.028;8.916;2023-05-16T02:28:26;10.80;99.90
6843;DHT22;3460;52.028;8.916;2023-05-16T02:30:58;10.70;99.90
6843;DHT22;3460;52.028;8.916;2023-05-16T02:33:25;10.70;99.90
6843;DHT22;3460;52.028;8.916;2023-05-16T02:35:53;10.60;99.90
6843;DHT22;3460;52.028;8.916;2023-05-16T02:38:20;10.60;99.90
6843;DHT22;3460;52.028;8.916;2023-05-16T02:40:47;10.50;99.90
6843;DHT22;3460;52.028;8.916;2023-05-16T02:43:14;10.50;99.90
6843;DHT22;3460;52.028;8.916;2023-05-16T02:45:40;10.40;99.90
6843;DHT22;3460;52.028;8.916;2023-05-16T02:48:09;10.50;99.90
6843;DHT22;3460;52.028;8.916;2023-05-16T02:50:36;10.40;99.90
6843;DHT22;3460;52.028;8.916;2023-05-16T02:53:04;10.30;99.90
6843;DHT22;3460;52.028;8.916;2023-05-16T02:55:31;10.30;99.90
6843;DHT22;3460;52.028;8.916;2023-05-16T02:57:58;10.20;99.90
6843;DHT22;3460;52.028;8.916;2023-05-16T03:00:25;10.10;99.90
6843;DHT22;3460;52.028;8.916;2023-05-16T03:02:52;10.00;99.90
6843;DHT22;3460;52.028;8.916;2023-05-16T03:05:20;10.00;99.90
6843;DHT22;3460;52.028;8.916;2023-05-16T03:07:47;10.00;99.90
6843;DHT22;3460;52.028;8.916;2023-05-16T03:10:13;10.00;99.90
6843;DHT22;3460;52.028;8.916;2023-05-16T03:12:40;9.90;99.90
6843;DHT22;3460;52.028;8.916;2023-05-16T03:15:08;9.90;99.90
6843;DHT22;3460;52.028;8.916;2023-05-16T03:17:35;9.90;99.90
6843;DHT22;3460;52.028;8.916;2023-05-16T03:20:02;9.90;99.90
6843;DHT22;3460;52.028;8.916;2023-05-16T03:22:31;9.90;99.90
6843;DHT22;3460;52.028;8.916;2023-05-16T03:24:57;9.90;99.90
6843;DHT22;3460;52.028;8.916;2023-05-16T03:27:25;10.00;99.90
6843;DHT22;3460;52.028;8.916;2023-05-16T03:29:52;9.90;99.90
6843;DHT22;3460;52.028;8.916;2023-05-16T03:32:19;9.90;99.90
6843;DHT22;3460;52.028;8.916;2023-05-16T03:34:46;9.80;99.90
6843;DHT22;3460;52.028;8.916;2023-05-16T03:37:13;9.80;99.90
6843;DHT22;3460;52.028;8.916;2023-05-16T03:39:42;9.80;99.90
6843;DHT22;3460;52.028;8.916;2023-05-16T03:42:08;9.80;99.90
6843;DHT22;3460;52.028;8.916;2023-05-16T03:44:35;9.80;99.90
6843;DHT22;3460;52.028;8.916;2023-05-16T03:47:02;9.80;99.90
6843;DHT22;3460;52.028;8.916;2023-05-16T03:49:29;9.80;99.90
6843;DHT22;3460;52.028;8.916;2023-05-16T03:51:56;9.80;99.90
6843;DHT22;3460;52.028;8.916;2023-05-16T03:54:23;9.80;99.90
6843;DHT22;3460;52.028;8.916;2023-05-16T03:56:51;9.80;99.90
6843;DHT22;3460;52.028;8.916;2023-05-16T03:59:18;9.80;99.90
6843;DHT22;3460;52.028;8.916;2023-05-16T04:01:45;9.80;99.90
6843;DHT22;3460;52.028;8.916;2023-05-16T04:04:12;9.70;99.90
6843;DHT22;3460;52.028;8.916;2023-05-16T04:06:39;9.80;99.90
6843;DHT22;3460;52.028;8.916;2023-05-16T04:09:06;9.80;99.90
6843;DHT22;3460;52.028;8.916;2023-05-16T04:11:33;9.80;99.90
6843;DHT22;3460;52.028;8.916;2023-05-16T04:14:02;9.80;99.90
6843;DHT22;3460;52.028;8.916;2023-05-16T04:16:29;9.80;99.90
6843;DHT22;3460;52.028;8.916;2023-05-16T04:18:56;9.80;99.90
6843;DHT22;3460;52.028;8.916;2023-05-16T04:21:23;9.70;99.90
6843;DHT22;3460;52.028;8.916;2023-05-16T04:23:50;9.70;99.90
6843;DHT22;3460;52.028;8.916;2023-05-16T04:26:17;9.80;99.90
6843;DHT22;3460;52.028;8.916;2023-05-16T04:28:46;9.80;99.90
6843;DHT22;3460;52.028;8.916;2023-05-16T04:31:14;9.70;99.90
6843;DHT22;3460;52.028;8.916;2023-05-16T04:33:41;9.70;99.90
6843;DHT22;3460;52.028;8.916;2023-05-16T04:36:08;9.70;99.90
6843;DHT22;3460;52.028;8.916;2023-05-16T04:38:34;9.70;99.90
6843;DHT22;3460;52.028;8.916;2023-05-16T04:41:02;9.70;99.90
6843;DHT22;3460;52.028;8.916;2023-05-16T04:43:29;9.70;99.90
6843;DHT22;3460;52.028;8.916;2023-05-16T04:45:56;9.70;99.90
6843;DHT22;3460;52.028;8.916;2023-05-16T04:48:25;9.80;99.90
6843;DHT22;3460;52.028;8.916;2023-05-16T04:50:52;9.70;99.90
6843;DHT22;3460;52.028;8.916;2023-05-16T04:53:19;9.70;99.90
6843;DHT22;3460;52.028;8.916;2023-05-16T04:55:45;9.70;99.90
6843;DHT22;3460;52.028;8.916;2023-05-16T04:58:13;9.70;99.90
6843;DHT22;3460;52.028;8.916;2023-05-16T05:00:40;9.70;99.90
6843;DHT22;3460;52.028;8.916;2023-05-16T05:03:07;9.80;99.90
6843;DHT22;3460;52.028;8.916;2023-05-16T05:05:35;9.80;99.90
6843;DHT22;3460;52.028;8.916;2023-05-16T05:08:02;9.80;99.90
6843;DHT22;3460;52.028;8.916;2023-05-16T05:10:29;9.80;99.90
6843;DHT22;3460;52.028;8.916;2023-05-16T05:12:56;9.60;99.90
6843;DHT22;3460;52.028;8.916;2023-05-16T05:15:23;9.70;99.90
6843;DHT22;3460;52.028;8.916;2023-05-16T05:17:50;9.70;99.90
6843;DHT22;3460;52.028;8.916;2023-05-16T05:20:17;9.70;99.90
6843;DHT22;3460;52.028;8.916;2023-05-16T05:22:45;9.70;99.90
6843;DHT22;3460;52.028;8.916;2023-05-16T05:25:12;9.70;99.90
6843;DHT22;3460;52.028;8.916;2023-05-16T05:27:39;9.70;99.90
6843;DHT22;3460;52.028;8.916;2023-05-16T05:30:07;9.70;99.90
6843;DHT22;3460;52.028;8.916;2023-05-16T05:32:34;9.70;99.90
6843;DHT22;3460;52.028;8.916;2023-05-16T05:35:00;9.80;99.90
6843;DHT22;3460;52.028;8.916;2023-05-16T05:37:28;9.80;99.90
6843;DHT22;3460;52.028;8.916;2023-05-16T05:39:57;9.70;99.90
6843;DHT22;3460;52.028;8.916;2023-05-16T05:42:23;9.70;99.90
6843;DHT22;3460;52.028;8.916;2023-05-16T05:44:50;9.80;99.90
6843;DHT22;3460;52.028;8.916;2023-05-16T05:47:17;9.90;99.90
6843;DHT22;3460;52.028;8.916;2023-05-16T05:49:44;9.90;99.90
6843;DHT22;3460;52.028;8.916;2023-05-16T05:52:11;9.90;99.90
6843;DHT22;3460;52.028;8.916;2023-05-16T05:54:38;10.00;99.90
6843;DHT22;3460;52.028;8.916;2023-05-16T05:57:06;10.00;99.90
6843;DHT22;3460;52.028;8.916;2023-05-16T05:59:33;10.00;99.90
6843;DHT22;3460;52.028;8.916;2023-05-16T06:02:00;10.00;99.90
6843;DHT22;3460;52.028;8.916;2023-05-16T06:04:27;9.90;99.90
6843;DHT22;3460;52.028;8.916;2023-05-16T06:06:54;9.90;99.90
6843;DHT22;3460;52.028;8.916;2023-05-16T06:09:20;9.90;99.90
6843;DHT22;3460;52.028;8.916;2023-05-16T06:11:48;9.90;99.90
6843;DHT22;3460;52.028;8.916;2023-05-16T06:14:16;9.80;99.90
6843;DHT22;3460;52.028;8.916;2023-05-16T06:16:43;9.80;99.90
6843;DHT22;3460;52.028;8.916;2023-05-16T06:19:10;9.90;99.90
6843;DHT22;3460;52.028;8.916;2023-05-16T06:21:40;10.00;99.90
6843;DHT22;3460;52.028;8.916;2023-05-16T06:24:07;9.90;99.90
6843;DHT22;3460;52.028;8.916;2023-05-16T06:26:35;9.90;99.90
6843;DHT22;3460;52.028;8.916;2023-05-16T06:29:02;10.00;99.90
6843;DHT22;3460;52.028;8.916;2023-05-16T06:31:30;10.10;99.90
6843;DHT22;3460;52.028;8.916;2023-05-16T06:33:57;10.00;99.90
6843;DHT22;3460;52.028;8.916;2023-05-16T06:36:24;10.10;99.90
6843;DHT22;3460;52.028;8.916;2023-05-16T06:38:50;10.10;99.90
6843;DHT22;3460;52.028;8.916;2023-05-16T06:41:17;10.30;99.90
6843;DHT22;3460;52.028;8.916;2023-05-16T06:43:44;10.40;99.90
6843;DHT22;3460;52.028;8.916;2023-05-16T06:46:11;10.60;99.90
6843;DHT22;3460;52.028;8.916;2023-05-16T06:48:39;10.60;99.90
6843;DHT22;3460;52.028;8.916;2023-05-16T06:51:06;10.80;99.90
6843;DHT22;3460;52.028;8.916;2023-05-16T06:53:33;10.90;99.90
6843;DHT22;3460;52.028;8.916;2023-05-16T06:55:59;11.00;99.90
6843;DHT22;3460;52.028;8.916;2023-05-16T06:58:26;11.10;99.90
6843;DHT22;3460;52.028;8.916;2023-05-16T07:00:53;11.20;99.90
6843;DHT22;3460;52.028;8.916;2023-05-16T07:03:20;11.20;99.90
6843;DHT22;3460;52.028;8.916;2023-05-16T07:05:48;11.20;99.90
6843;DHT22;3460;52.028;8.916;2023-05-16T07:08:17;11.10;99.90
6843;DHT22;3460;52.028;8.916;2023-05-16T07:10:44;11.20;99.90
6843;DHT22;3460;52.028;8.916;2023-05-16T07:13:11;11.30;99.90
6843;DHT22;3460;52.028;8.916;2023-05-16T07:15:37;11.40;99.90
6843;DHT22;3460;52.028;8.916;2023-05-16T07:18:04;11.60;99.90
6843;DHT22;3460;52.028;8.916;2023-05-16T07:20:31;11.60;99.90
6843;DHT22;3460;52.028;8.916;2023-05-16T07:22:59;11.70;99.90
6843;DHT22;3460;52.028;8.916;2023-05-16T07:25:26;11.30;99.90
6843;DHT22;3460;52.028;8.916;2023-05-16T07:27:53;11.30;99.90
6843;DHT22;3460;52.028;8.916;2023-05-16T07:30:20;11.30;99.90
6843;DHT22;3460;52.028;8.916;2023-05-16T07:32:47;11.30;99.90
6843;DHT22;3460;52.028;8.916;2023-05-16T07:35:14;11.40;99.90
6843;DHT22;3460;52.028;8.916;2023-05-16T07:37:41;11.50;99.90
6843;DHT22;3460;52.028;8.916;2023-05-16T07:40:10;11.50;99.90
6843;DHT22;3460;52.028;8.916;2023-05-16T07:42:38;11.60;99.90
6843;DHT22;3460;52.028;8.916;2023-05-16T07:45:06;11.80;99.90
6843;DHT22;3460;52.028;8.916;2023-05-16T07:47:32;12.10;99.90
6843;DHT22;3460;52.028;8.916;2023-05-16T07:49:59;12.20;99.90
6843;DHT22;3460;52.028;8.916;2023-05-16T07:52:26;12.20;99.90
6843;DHT22;3460;52.028;8.916;2023-05-16T07:54:53;12.30;99.90
6843;DHT22;3460;52.028;8.916;2023-05-16T07:57:21;12.60;99.90
6843;DHT22;3460;52.028;8.916;2023-05-16T07:59:49;12.70;99.90
6843;DHT22;3460;52.028;8.916;2023-05-16T08:02:16;12.70;99.90
6843;DHT22;3460;52.028;8.916;2023-05-16T08:04:43;12.90;99.90
6843;DHT22;3460;52.028;8.916;2023-05-16T08:07:10;12.90;99.90
6843;DHT22;3460;52.028;8.916;2023-05-16T08:09:37;12.90;99.90
6843;DHT22;3460;52.028;8.916;2023-05-16T08:12:04;13.10;99.90
6843;DHT22;3460;52.028;8.916;2023-05-16T08:14:32;13.10;99.90
6843;DHT22;3460;52.028;8.916;2023-05-16T08:17:01;13.00;99.90
6843;DHT22;3460;52.028;8.916;2023-05-16T08:19:28;12.80;99.90
6843;DHT22;3460;52.028;8.916;2023-05-16T08:21:54;12.70;99.90
6843;DHT22;3460;52.028;8.916;2023-05-16T08:24:21;12.50;99.90
6843;DHT22;3460;52.028;8.916;2023-05-16T08:26:49;12.70;99.90
6843;DHT22;3460;52.028;8.916;2023-05-16T08:29:16;12.70;99.90
6843;DHT22;3460;52.028;8.916;2023-05-16T08:31:44;12.80;99.90
6843;DHT22;3460;52.028;8.916;2023-05-16T08:34:11;12.60;99.90
6843;DHT22;3460;52.028;8.916;2023-05-16T08:36:37;12.80;99.90
6843;DHT22;3460;52.028;8.916;2023-05-16T08:39:04;13.10;99.90
6843;DHT22;3460;52.028;8.916;2023-05-16T08:41:32;13.30;99.90
6843;DHT22;3460;52.028;8.916;2023-05-16T08:43:59;13.20;99.90
6843;DHT22;3460;52.028;8.916;2023-05-16T08:46:28;13.60;99.90
6843;DHT22;3460;52.028;8.916;2023-05-16T08:48:58;13.50;99.90
6843;DHT22;3460;52.028;8.916;2023-05-16T08:51:27;13.10;99.90
6843;DHT22;3460;52.028;8.916;2023-05-16T08:54:00;12.90;99.90
6843;DHT22;3460;52.028;8.916;2023-05-16T08:56:28;12.60;99.90
6843;DHT22;3460;52.028;8.916;2023-05-16T08:58:56;12.90;99.90
6843;DHT22;3460;52.028;8.916;2023-05-16T09:01:23;12.80;99.90
6843;DHT22;3460;52.028;8.916;2023-05-16T09:03:51;12.90;99.90
6843;DHT22;3460;52.028;8.916;2023-05-16T09:06:19;13.40;99.90
6843;DHT22;3460;52.028;8.916;2023-05-16T09:08:46;13.70;99.90
6843;DHT22;3460;52.028;8.916;2023-05-16T09:11:13;13.50;99.90
6843;DHT22;3460;52.028;8.916;2023-05-16T09:13:40;13.40;99.90
6843;DHT22;3460;52.028;8.916;2023-05-16T09:16:08;13.30;99.90
6843;DHT22;3460;52.028;8.916;2023-05-16T09:18:36;13.50;99.90
6843;DHT22;3460;52.028;8.916;2023-05-16T09:21:04;13.60;99.90
6843;DHT22;3460;52.028;8.916;2023-05-16T09:23:33;13.80;99.90
6843;DHT22;3460;52.028;8.916;2023-05-16T09:26:01;13.80;99.90
6843;DHT22;3460;52.028;8.916;2023-05-16T09:28:28;13.70;99.90
6843;DHT22;3460;52.028;8.916;2023-05-16T09:30:55;13.70;99.90
6843;DHT22;3460;52.028;8.916;2023-05-16T09:33:26;13.70;99.90
6843;DHT22;3460;52.028;8.916;2023-05-16T09:35:57;13.70;99.90
6843;DHT22;3460;52.028;8.916;2023-05-16T09:38:24;13.70;99.90
6843;DHT22;3460;52.028;8.916;2023-05-16T09:40:53;14.00;99.90
6843;DHT22;3460;52.028;8.916;2023-05-16T09:43:24;14.20;99.90
6843;DHT22;3460;52.028;8.916;2023-05-16T09:45:51;13.90;99.90
6843;DHT22;3460;52.028;8.916;2023-05-16T09:48:20;13.60;99.90
6843;DHT22;3460;52.028;8.916;2023-05-16T09:50:50;13.50;99.90
6843;DHT22;3460;52.028;8.916;2023-05-16T09:53:23;13.80;99.90
6843;DHT22;3460;52.028;8.916;2023-05-16T09:56:00;14.10;99.90
6843;DHT22;3460;52.028;8.916;2023-05-16T09:58:28;14.50;99.90
6843;DHT22;3460;52.028;8.916;2023-05-16T10:00:56;14.60;99.90
6843;DHT22;3460;52.028;8.916;2023-05-16T10:03:24;14.80;99.90
6843;DHT22;3460;52.028;8.916;2023-05-16T10:05:52;14.80;99.90
6843;DHT22;3460;52.028;8.916;2023-05-16T10:08:20;14.80;99.90
6843;DHT22;3460;52.028;8.916;2023-05-16T10:10:50;14.50;99.90
6843;DHT22;3460;52.028;8.916;2023-05-16T10:13:20;14.20;99.90
6843;DHT22;3460;52.028;8.916;2023-05-16T10:15:47;14.10;99.90
6843;DHT22;3460;52.028;8.916;2023-05-16T10:18:16;14.10;99.90
6843;DHT22;3460;52.028;8.916;2023-05-16T10:20:45;13.90;99.90
6843;DHT22;3460;52.028;8.916;2023-05-16T10:23:16;13.90;99.90
6843;DHT22;3460;52.028;8.916;2023-05-16T10:25:44;13.90;99.90
6843;DHT22;3460;52.028;8.916;2023-05-16T10:28:12;14.00;99.90
6843;DHT22;3460;52.028;8.916;2023-05-16T10:30:41;13.90;99.90
6843;DHT22;3460;52.028;8.916;2023-05-16T10:33:11;13.80;99.90
6843;DHT22;3460;52.028;8.916;2023-05-16T10:35:38;13.70;99.90
6843;DHT22;3460;52.028;8.916;2023-05-16T10:38:06;13.70;99.90
6843;DHT22;3460;52.028;8.916;2023-05-16T10:40:34;13.60;99.90
6843;DHT22;3460;52.028;8.916;2023-05-16T10:43:03;14.00;99.90
6843;DHT22;3460;52.028;8.916;2023-05-16T10:45:31;14.20;99.90
6843;DHT22;3460;52.028;8.916;2023-05-16T10:48:00;14.60;99.90
6843;DHT22;3460;52.028;8.916;2023-05-16T10:50:33;15.00;99.90
6843;DHT22;3460;52.028;8.916;2023-05-16T10:53:14;14.90;99.90
6843;DHT22;3460;52.028;8.916;2023-05-16T10:55:44;14.70;99.90
6843;DHT22;3460;52.028;8.916;2023-05-16T10:58:18;14.70;99.90
6843;DHT22;3460;52.028;8.916;2023-05-16T11:00:48;14.40;99.90
6843;DHT22;3460;52.028;8.916;2023-05-16T11:03:22;14.60;99.90
6843;DHT22;3460;52.028;8.916;2023-05-16T11:05:59;14.90;99.90
6843;DHT22;3460;52.028;8.916;2023-05-16T11:08:26;15.20;99.90
6843;DHT22;3460;52.028;8.916;2023-05-16T11:11:37;15.40;99.90
6843;DHT22;3460;52.028;8.916;2023-05-16T11:14:04;15.10;99.90
6843;DHT22;3460;52.028;8.916;2023-05-16T11:16:32;15.00;99.90
6843;DHT22;3460;52.028;8.916;2023-05-16T11:19:04;14.90;99.90
6843;DHT22;3460;52.028;8.916;2023-05-16T11:22:05;14.70;99.90
6843;DHT22;3460;52.028;8.916;2023-05-16T11:24:32;14.30;99.90
6843;DHT22;3460;52.028;8.916;2023-05-16T11:27:01;14.20;99.90
6843;DHT22;3460;52.028;8.916;2023-05-16T11:29:30;14.00;99.90
6843;DHT22;3460;52.028;8.916;2023-05-16T11:31:58;13.80;99.90
6843;DHT22;3460;52.028;8.916;2023-05-16T11:34:26;13.60;99.90
6843;DHT22;3460;52.028;8.916;2023-05-16T11:36:53;13.60;99.90
6843;DHT22;3460;52.028;8.916;2023-05-16T11:39:20;13.90;99.90
6843;DHT22;3460;52.028;8.916;2023-05-16T11:41:49;14.00;99.90
6843;DHT22;3460;52.028;8.916;2023-05-16T11:44:16;14.00;99.90
6843;DHT22;3460;52.028;8.916;2023-05-16T11:46:42;13.90;99.90
6843;DHT22;3460;52.028;8.916;2023-05-16T11:49:10;14.10;99.90
6843;DHT22;3460;52.028;8.916;2023-05-16T11:51:39;14.10;99.90
6843;DHT22;3460;52.028;8.916;2023-05-16T11:54:07;14.20;99.90
6843;DHT22;3460;52.028;8.916;2023-05-16T11:56:35;14.40;99.90
6843;DHT22;3460;52.028;8.916;2023-05-16T11:59:02;14.60;99.90
6843;DHT22;3460;52.028;8.916;2023-05-16T12:01:33;14.50;99.90
6843;DHT22;3460;52.028;8.916;2023-05-16T12:04:01;14.30;99.90
6843;DHT22;3460;52.028;8.916;2023-05-16T12:06:28;14.10;99.90
6843;DHT22;3460;52.028;8.916;2023-05-16T12:08:57;14.20;99.90
6843;DHT22;3460;52.028;8.916;2023-05-16T12:11:26;14.30;99.90
6843;DHT22;3460;52.028;8.916;2023-05-16T12:13:53;14.70;99.90
6843;DHT22;3460;52.028;8.916;2023-05-16T12:16:20;14.90;99.90
6843;DHT22;3460;52.028;8.916;2023-05-16T12:18:48;15.20;99.90
6843;DHT22;3460;52.028;8.916;2023-05-16T12:21:15;15.20;99.90
6843;DHT22;3460;52.028;8.916;2023-05-16T12:23:42;15.20;99.90
6843;DHT22;3460;52.028;8.916;2023-05-16T12:26:10;15.20;99.90
6843;DHT22;3460;52.028;8.916;2023-05-16T12:28:37;15.00;99.90
6843;DHT22;3460;52.028;8.916;2023-05-16T12:31:10;14.60;99.90
6843;DHT22;3460;52.028;8.916;2023-05-16T12:33:44;14.70;99.90
6843;DHT22;3460;52.028;8.916;2023-05-16T12:36:12;14.90;99.90
6843;DHT22;3460;52.028;8.916;2023-05-16T12:38:40;15.10;99.90
6843;DHT22;3460;52.028;8.916;2023-05-16T12:41:07;15.40;99.90
6843;DHT22;3460;52.028;8.916;2023-05-16T12:43:36;15.60;99.90
6843;DHT22;3460;52.028;8.916;2023-05-16T12:46:08;15.80;99.90
6843;DHT22;3460;52.028;8.916;2023-05-16T12:48:36;15.80;99.90
6843;DHT22;3460;52.028;8.916;2023-05-16T12:51:11;15.80;99.90
6843;DHT22;3460;52.028;8.916;2023-05-16T12:53:43;15.70;99.90
6843;DHT22;3460;52.028;8.916;2023-05-16T12:56:10;15.50;99.90
6843;DHT22;3460;52.028;8.916;2023-05-16T12:58:39;15.50;99.90
6843;DHT22;3460;52.028;8.916;2023-05-16T13:01:07;15.60;99.90
6843;DHT22;3460;52.028;8.916;2023-05-16T13:03:34;15.50;99.90
6843;DHT22;3460;52.028;8.916;2023-05-16T13:06:01;15.30;99.90
6843;DHT22;3460;52.028;8.916;2023-05-16T13:08:30;15.30;99.90
6843;DHT22;3460;52.028;8.916;2023-05-16T13:10:57;15.30;99.90
6843;DHT22;3460;52.028;8.916;2023-05-16T13:13:24;15.10;99.90
6843;DHT22;3460;52.028;8.916;2023-05-16T13:15:52;15.20;99.90
6843;DHT22;3460;52.028;8.916;2023-05-16T13:18:18;15.20;99.90
6843;DHT22;3460;52.028;8.916;2023-05-16T13:20:45;15.00;99.90
6843;DHT22;3460;52.028;8.916;2023-05-16T13:23:12;15.00;99.90
6843;DHT22;3460;52.028;8.916;2023-05-16T13:25:39;15.00;99.90
6843;DHT22;3460;52.028;8.916;2023-05-16T13:28:06;14.90;99.90
6843;DHT22;3460;52.028;8.916;2023-05-16T13:30:33;14.70;99.90
6843;DHT22;3460;52.028;8.916;2023-05-16T13:33:01;14.60;99.90
6843;DHT22;3460;52.028;8.916;2023-05-16T13:35:28;14.50;99.90
6843;DHT22;3460;52.028;8.916;2023-05-16T13:37:55;14.30;99.90
6843;DHT22;3460;52.028;8.916;2023-05-16T13:40:22;14.10;99.90
6843;DHT22;3460;52.028;8.916;2023-05-16T13:42:49;14.00;99.90
6843;DHT22;3460;52.028;8.916;2023-05-16T13:45:16;14.10;99.90
6843;DHT22;3460;52.028;8.916;2023-05-16T13:47:43;14.30;99.90
6843;DHT22;3460;52.028;8.916;2023-05-16T13:50:11;14.50;99.90
6843;DHT22;3460;52.028;8.916;2023-05-16T13:52:38;14.70;99.90
6843;DHT22;3460;52.028;8.916;2023-05-16T13:55:06;15.00;99.90
6843;DHT22;3460;52.028;8.916;2023-05-16T13:57:33;14.90;99.90
6843;DHT22;3460;52.028;8.916;2023-05-16T14:00:01;15.10;99.90
6843;DHT22;3460;52.028;8.916;2023-05-16T14:02:30;14.90;99.90
6843;DHT22;3460;52.028;8.916;2023-05-16T14:04:57;14.70;99.90
6843;DHT22;3460;52.028;8.916;2023-05-16T14:07:25;14.90;99.90
6843;DHT22;3460;52.028;8.916;2023-05-16T14:09:52;14.80;99.90
6843;DHT22;3460;52.028;8.916;2023-05-16T14:12:18;15.00;99.90
6843;DHT22;3460;52.028;8.916;2023-05-16T14:14:46;15.10;99.90
6843;DHT22;3460;52.028;8.916;2023-05-16T14:17:19;15.10;99.90
6843;DHT22;3460;52.028;8.916;2023-05-16T14:19:49;15.20;99.90
6843;DHT22;3460;52.028;8.916;2023-05-16T14:22:17;15.30;99.90
6843;DHT22;3460;52.028;8.916;2023-05-16T14:24:45;15.30;99.90
6843;DHT22;3460;52.028;8.916;2023-05-16T14:27:14;15.00;99.90
6843;DHT22;3460;52.028;8.916;2023-05-16T14:29:41;14.80;99.90
6843;DHT22;3460;52.028;8.916;2023-05-16T14:32:09;14.70;99.90
6843;DHT22;3460;52.028;8.916;2023-05-16T14:34:36;14.60;99.90
6843;DHT22;3460;52.028;8.916;2023-05-16T14:37:03;14.50;99.90
6843;DHT22;3460;52.028;8.916;2023-05-16T14:39:30;14.60;99.90
6843;DHT22;3460;52.028;8.916;2023-05-16T14:41:58;14.50;99.90
6843;DHT22;3460;52.028;8.916;2023-05-16T14:44:25;14.40;99.90
6843;DHT22;3460;52.028;8.916;2023-05-16T14:46:52;14.30;99.90
6843;DHT22;3460;52.028;8.916;2023-05-16T14:49:19;14.30;99.90
6843;DHT22;3460;52.028;8.916;2023-05-16T14:51:46;14.30;99.90
6843;DHT22;3460;52.028;8.916;2023-05-16T14:54:14;14.30;99.90
6843;DHT22;3460;52.028;8.916;2023-05-16T14:56:41;14.20;99.90
6843;DHT22;3460;52.028;8.916;2023-05-16T14:59:09;14.00;99.90
6843;DHT22;3460;52.028;8.916;2023-05-16T15:01:37;13.90;99.90
6843;DHT22;3460;52.028;8.916;2023-05-16T15:04:04;14.00;99.90
6843;DHT22;3460;52.028;8.916;2023-05-16T15:06:30;14.10;99.90
6843;DHT22;3460;52.028;8.916;2023-05-16T15:08:57;14.10;99.90
6843;DHT22;3460;52.028;8.916;2023-05-16T15:11:24;14.20;99.90
6843;DHT22;3460;52.028;8.916;2023-05-16T15:13:51;14.10;99.90
6843;DHT22;3460;52.028;8.916;2023-05-16T15:16:20;13.90;99.90
6843;DHT22;3460;52.028;8.916;2023-05-16T15:18:46;13.80;99.90
6843;DHT22;3460;52.028;8.916;2023-05-16T15:21:13;13.80;99.90
6843;DHT22;3460;52.028;8.916;2023-05-16T15:23:40;13.80;99.90
6843;DHT22;3460;52.028;8.916;2023-05-16T15:26:07;13.90;99.90
6843;DHT22;3460;52.028;8.916;2023-05-16T15:28:34;13.80;99.90
6843;DHT22;3460;52.028;8.916;2023-05-16T15:31:02;13.80;99.90
6843;DHT22;3460;52.028;8.916;2023-05-16T15:33:31;13.90;99.90
6843;DHT22;3460;52.028;8.916;2023-05-16T15:35:58;14.10;99.90
6843;DHT22;3460;52.028;8.916;2023-05-16T15:38:25;14.10;99.90
6843;DHT22;3460;52.028;8.916;2023-05-16T15:40:51;14.10;99.90
6843;DHT22;3460;52.028;8.916;2023-05-16T15:43:19;14.00;99.90
6843;DHT22;3460;52.028;8.916;2023-05-16T15:45:46;14.20;99.90
6843;DHT22;3460;52.028;8.916;2023-05-16T15:48:12;14.30;99.90
6843;DHT22;3460;52.028;8.916;2023-05-16T15:50:40;14.20;99.90
6843;DHT22;3460;52.028;8.916;2023-05-16T15:53:07;14.20;99.90
6843;DHT22;3460;52.028;8.916;2023-05-16T15:55:34;13.90;99.90
6843;DHT22;3460;52.028;8.916;2023-05-16T15:58:01;13.80;99.90
6843;DHT22;3460;52.028;8.916;2023-05-16T16:00:29;13.60;99.90
6843;DHT22;3460;52.028;8.916;2023-05-16T16:02:56;13.40;99.90
6843;DHT22;3460;52.028;8.916;2023-05-16T16:05:23;13.30;99.90
6843;DHT22;3460;52.028;8.916;2023-05-16T16:07:51;13.30;99.90
6843;DHT22;3460;52.028;8.916;2023-05-16T16:10:18;13.30;99.90